METAR Data
IDs: Format: Raw Decoded Include TAF

Data at: 0137 UTC 06 Dec 2019

KLQK 060135Z AUTO 00000KT 10SM CLR 04/00 A3015 RMK AO2 T00350000
KLQK 060115Z AUTO 00000KT 10SM CLR 05/00 A3014 RMK AO2 T00461001
KLQK 060055Z AUTO 00000KT 10SM CLR 04/00 A3015 RMK AO2 T00430002
KLQK 060035Z AUTO 00000KT 10SM CLR 06/00 A3014 RMK AO2 T00600000
KLQK 060015Z AUTO 00000KT 10SM CLR 07/00 A3014 RMK AO2 T00681003
KLQK 052355Z AUTO 00000KT 10SM CLR 07/00 A3013 RMK AO2 T00690000 10180 20069
KLQK 052335Z AUTO 16003KT 10SM CLR 09/M01 A3013 RMK AO2 T00861011
KLQK 052315Z AUTO 17003KT 10SM CLR 11/M03 A3012 RMK AO2 T01061028
KLQK 052255Z AUTO 16003KT 10SM CLR 12/M03 A3011 RMK AO2 T01221034
KLQK 052235Z AUTO 17003KT 10SM CLR 14/M03 A3011 RMK AO2 T01351035
KLQK 052215Z AUTO 18004KT 10SM CLR 15/M04 A3010 RMK AO2 T01491036
KLQK 052155Z AUTO 18003KT 10SM CLR 16/M04 A3010 RMK AO2 T01601041
KLQK 052135Z AUTO 17004KT 10SM CLR 17/M04 A3010 RMK AO2 T01651042
KLQK 052115Z AUTO 20006KT 10SM CLR 17/M04 A3009 RMK AO2 T01671045
KLQK 052055Z AUTO 18006KT 10SM CLR 17/M04 A3009 RMK AO2 T01701041
KLQK 052035Z AUTO 21005KT 10SM CLR 17/M06 A3008 RMK AO2 T01741056
KLQK 052015Z AUTO 23005KT 10SM CLR 18/M05 A3008 RMK AO2 T01751055
KLQK 051955Z AUTO 21005KT 10SM CLR 18/M05 A3008 RMK AO2 T01781051
KLQK 051935Z AUTO 21003KT 10SM CLR 17/M05 A3007 RMK AO2 T01671052
KLQK 051915Z AUTO 25005KT 10SM CLR 18/M04 A3007 RMK AO2 T01761042
KLQK 051855Z AUTO 19003KT 10SM CLR 17/M04 A3008 RMK AO2 T01711039
KLQK 051835Z AUTO 00000KT 10SM CLR 17/M04 A3008 RMK AO2 T01731043
KLQK 051815Z AUTO 20003KT 10SM CLR 17/M05 A3008 RMK AO2 T01701048
KLQK 051755Z AUTO 00000KT 10SM CLR 17/M07 A3008 RMK AO2 T01661067 10167 20032
KLQK 051735Z AUTO 25004KT 10SM CLR 17/M06 A3009 RMK AO2 T01651060
KLQK 051715Z AUTO 00000KT 10SM CLR 16/M04 A3010 RMK AO2 T01621045
KLQK 051655Z AUTO 00000KT 10SM CLR 16/M05 A3010 RMK AO2 T01561050
KLQK 051635Z AUTO 17005KT 10SM CLR 16/M05 A3011 RMK AO2 T01561052
KLQK 051615Z AUTO 15004KT 10SM CLR 15/M05 A3011 RMK AO2 T01541048
KLQK 051555Z AUTO 00000KT 10SM CLR 15/M05 A3011 RMK AO2 T01461049
KLQK 051535Z AUTO 00000KT 10SM CLR 14/M04 A3010 RMK AO2 T01401042
KLQK 051515Z AUTO 00000KT 10SM CLR 14/M03 A3009 RMK AO2 T01381035
KLQK 051455Z AUTO 00000KT 10SM CLR 12/M03 A3008 RMK AO2 T01221033
KLQK 051435Z AUTO 00000KT 10SM CLR 12/M02 A3007 RMK AO2 T01161022
KLQK 051415Z AUTO 20003KT 10SM CLR 11/M02 A3006 RMK AO2 T01091023
KLQK 051355Z AUTO 00000KT 10SM CLR 09/00 A3005 RMK AO2 T00901005
KLQK 051335Z AUTO 24003KT 10SM CLR 08/M02 A3004 RMK AO2 T00771025
KLQK 051315Z AUTO 16005KT 10SM CLR 06/M03 A3002 RMK AO2 T00621031
KLQK 051255Z AUTO 34004KT 10SM CLR 07/M03 A3001 RMK AO2 T00701033
KLQK 051235Z AUTO 30006KT 10SM CLR 07/M04 A3000 RMK AO2 T00681038
KLQK 051215Z AUTO 26003KT 10SM CLR 06/M04 A2999 RMK AO2 T00611036
KLQK 051155Z AUTO 00000KT 10SM CLR 05/M01 A2998 RMK AO2 T00541012 10102 20046
KLQK 051135Z AUTO 00000KT 10SM CLR 07/M03 A2997 RMK AO2 T00661033
KLQK 051115Z AUTO 00000KT 10SM CLR 07/M03 A2997 RMK AO2 T00691035
KLQK 051055Z AUTO 20005KT 10SM CLR 05/M03 A2997 RMK AO2 T00521030
KLQK 051035Z AUTO 19003KT 10SM CLR 06/M04 A2996 RMK AO2 T00631038
KLQK 051015Z AUTO 17003KT 10SM CLR 05/M03 A2995 RMK AO2 T00471034
KLQK 050955Z AUTO 00000KT 10SM CLR 06/M04 A2994 RMK AO2 T00571036
KLQK 050935Z AUTO 00000KT 10SM CLR 07/M04 A2993 RMK AO2 T00701040
KLQK 050915Z AUTO 00000KT 10SM CLR 08/M04 A2993 RMK AO2 T00751037
KLQK 050855Z AUTO 15004KT 10SM CLR 07/M03 A2992 RMK AO2 T00661031
KLQK 050835Z AUTO 18004KT 10SM CLR 07/M03 A2991 RMK AO2 T00721032
KLQK 050815Z AUTO 00000KT 10SM CLR 08/M03 A2990 RMK AO2 T00751030
KLQK 050755Z AUTO 29005G14KT 10SM CLR 10/M05 A2988 RMK AO2 T01001046
KLQK 050735Z AUTO 28010G16KT 10SM CLR 10/M04 A2988 RMK AO2 T01001045
KLQK 050715Z AUTO 27014G19KT 10SM CLR 10/M04 A2987 RMK AO2 T01001042
KLQK 050655Z AUTO 26010G14KT 10SM CLR 08/M03 A2987 RMK AO2 T00841033
KLQK 050635Z AUTO 27008KT 10SM CLR 08/M03 A2986 RMK AO2 T00761030
KLQK 050615Z AUTO 24004KT 10SM CLR 07/M03 A2986 RMK AO2 T00681026
KLQK 050555Z AUTO 22005KT 10SM CLR 06/M03 A2985 RMK AO2 T00631027 10106 20061 401751017
KLQK 050535Z AUTO 26008KT 10SM CLR 06/M03 A2986 RMK AO2 T00621026
KLQK 050515Z AUTO 26006KT 10SM CLR 08/M03 A2986 RMK AO2 T00831032
KLQK 050455Z AUTO 25005KT 10SM CLR 07/M03 A2985 RMK AO2 T00731030
KLQK 050435Z AUTO 26005KT 10SM CLR 08/M03 A2986 RMK AO2 T00811033
KLQK 050415Z AUTO 24004KT 10SM CLR 08/M03 A2986 RMK AO2 T00761031
KLQK 050355Z AUTO 21004KT 10SM CLR 08/M03 A2985 RMK AO2 T00751033
KLQK 050335Z AUTO 23005KT 10SM CLR 08/M03 A2985 RMK AO2 T00811035
KLQK 050315Z AUTO 23005KT 10SM CLR 09/M03 A2985 RMK AO2 T00861035
KLQK 050255Z AUTO 26005KT 10SM CLR 09/M04 A2986 RMK AO2 T00921037
KLQK 050235Z AUTO 25006KT 10SM CLR 10/M04 A2986 RMK AO2 T00971037
KLQK 050215Z AUTO 26006KT 10SM CLR 10/M04 A2986 RMK AO2 T00961037
KLQK 050155Z AUTO 24006KT 10SM CLR 10/M04 A2985 RMK AO2 T00951042
KLQK 050135Z AUTO 26008KT 10SM CLR 10/M04 A2984 RMK AO2 T01001044
KLQK 050115Z AUTO 26008KT 10SM CLR 10/M05 A2984 RMK AO2 T01021046
KLQK 050055Z AUTO 25006KT 10SM CLR 11/M05 A2984 RMK AO2 T01051046
KLQK 050035Z AUTO 25007KT 10SM CLR 10/M04 A2984 RMK AO2 T00981045
KLQK 050015Z AUTO 24004KT 10SM CLR 10/M05 A2983 RMK AO2 T00981046
KLQK 042355Z AUTO 25005KT 10SM CLR 10/M05 A2982 RMK AO2 T01031046 10175 20100
KLQK 042335Z AUTO 26006KT 10SM CLR 11/M05 A2982 RMK AO2 T01061047
KLQK 042315Z AUTO 28007KT 10SM CLR 12/M05 A2981 RMK AO2 T01171051
KLQK 042255Z AUTO 28004KT 10SM CLR 12/M05 A2981 RMK AO2 T01201053
KLQK 042235Z AUTO 29004KT 10SM CLR 13/M06 A2980 RMK AO2 T01281058
KLQK 042215Z AUTO 31006KT 10SM CLR 14/M06 A2979 RMK AO2 T01391062
KLQK 042155Z AUTO 31009G16KT 10SM CLR 15/M07 A2978 RMK AO2 T01501066
KLQK 042135Z AUTO 31010G20KT 10SM CLR 16/M07 A2977 RMK AO2 T01551071
KLQK 042115Z AUTO 29010G17KT 260V320 10SM CLR 16/M07 A2976 RMK AO2 T01601068
KLQK 042055Z AUTO 30015G24KT 10SM CLR 16/M06 A2975 RMK AO2 T01641065
KLQK 042035Z AUTO 31017G22KT 10SM CLR 17/M06 A2975 RMK AO2 T01651065
KLQK 042015Z AUTO 30012G21KT 10SM CLR 17/M07 A2974 RMK AO2 T01681066
KLQK 041955Z AUTO 30011G20KT 240V330 10SM CLR 17/M06 A2974 RMK AO2 T01691064
KLQK 041935Z AUTO 29013G20KT 10SM CLR 17/M06 A2974 RMK AO2 T01701060
KLQK 041915Z AUTO 31008G20KT 260V320 10SM CLR 17/M05 A2974 RMK AO2 T01701053
KLQK 041855Z AUTO 29011G21KT 10SM CLR 17/M04 A2975 RMK AO2 T01691037
KLQK 041835Z AUTO 25008G17KT 10SM CLR 17/M01 A2974 RMK AO2 T01651013
KLQK 041815Z AUTO 27007KT 10SM CLR 16/00 A2975 RMK AO2 T01561003
KLQK 041755Z AUTO 23005KT 10SM CLR 15/M01 A2975 RMK AO2 T01451006 10147 21017
KLQK 041735Z AUTO 27010G15KT 240V310 10SM CLR 15/M01 A2976 RMK AO2 T01451007
KLQK 041715Z AUTO 26006KT 10SM CLR 14/00 A2977 RMK AO2 T01391003
KLQK 041655Z AUTO 23006KT 10SM CLR 13/M01 A2978 RMK AO2 T01281007
KLQK 041635Z AUTO 23007KT 10SM CLR 13/M01 A2979 RMK AO2 T01251007
KLQK 041615Z AUTO 23006KT 10SM CLR 12/00 A2979 RMK AO2 T01181005
KLQK 041555Z AUTO 24007KT 10SM CLR 11/00 A2980 RMK AO2 T01071003
KLQK 041535Z AUTO 26004KT 10SM CLR 10/00 A2981 RMK AO2 T00971002
KLQK 041515Z AUTO 23004KT 10SM CLR 09/00 A2980 RMK AO2 T00861004
KLQK 041455Z AUTO 24004KT 10SM CLR 08/00 A2980 RMK AO2 T00751003
KLQK 041435Z AUTO 00000KT 10SM CLR 06/00 A2980 RMK AO2 T00630000
KLQK 041415Z AUTO 23003KT 10SM CLR 05/00 A2981 RMK AO2 T00460000
KLQK 041355Z AUTO 00000KT 10SM CLR 02/01 A2980 RMK AO2 T00220005